sensor_id;sensor_type;location;lat;lon;timestamp;P1;durP1;ratioP1;P2;durP2;ratioP2
48522;SDS011;34315;50.150;11.070;2023-05-07T00:00:17;8.63;;;5.88;;
48522;SDS011;34315;50.150;11.070;2023-05-07T00:05:19;8.18;;;6.22;;
48522;SDS011;34315;50.150;11.070;2023-05-07T00:10:20;8.10;;;6.13;;
48522;SDS011;34315;50.150;11.070;2023-05-07T00:15:22;10.18;;;7.25;;
48522;SDS011;34315;50.150;11.070;2023-05-07T00:20:23;7.90;;;6.80;;
48522;SDS011;34315;50.150;11.070;2023-05-07T00:25:24;10.68;;;8.38;;
48522;SDS011;34315;50.150;11.070;2023-05-07T00:30:25;9.93;;;7.68;;
48522;SDS011;34315;50.150;11.070;2023-05-07T00:35:26;10.13;;;7.93;;
48522;SDS011;34315;50.150;11.070;2023-05-07T00:40:28;11.80;;;8.10;;
48522;SDS011;34315;50.150;11.070;2023-05-07T00:45:29;13.18;;;8.50;;
48522;SDS011;34315;50.150;11.070;2023-05-07T00:50:31;11.93;;;9.05;;
48522;SDS011;34315;50.150;11.070;2023-05-07T00:55:32;11.18;;;8.77;;
48522;SDS011;34315;50.150;11.070;2023-05-07T01:00:33;12.82;;;9.30;;
48522;SDS011;34315;50.150;11.070;2023-05-07T01:05:34;11.27;;;8.73;;
48522;SDS011;34315;50.150;11.070;2023-05-07T01:10:36;12.02;;;9.23;;
48522;SDS011;34315;50.150;11.070;2023-05-07T01:15:37;13.40;;;8.38;;
48522;SDS011;34315;50.150;11.070;2023-05-07T01:20:39;13.32;;;8.77;;
48522;SDS011;34315;50.150;11.070;2023-05-07T01:25:40;12.93;;;9.10;;
48522;SDS011;34315;50.150;11.070;2023-05-07T01:30:43;10.95;;;8.27;;
48522;SDS011;34315;50.150;11.070;2023-05-07T01:35:51;13.30;;;9.10;;
48522;SDS011;34315;50.150;11.070;2023-05-07T01:40:53;12.52;;;8.52;;
48522;SDS011;34315;50.150;11.070;2023-05-07T01:45:55;11.65;;;8.77;;
48522;SDS011;34315;50.150;11.070;2023-05-07T01:50:56;14.05;;;9.88;;
48522;SDS011;34315;50.150;11.070;2023-05-07T01:55:57;13.35;;;9.27;;
48522;SDS011;34315;50.150;11.070;2023-05-07T02:00:59;11.95;;;8.68;;
48522;SDS011;34315;50.150;11.070;2023-05-07T02:06:00;13.13;;;10.05;;
48522;SDS011;34315;50.150;11.070;2023-05-07T02:11:08;13.63;;;9.57;;
48522;SDS011;34315;50.150;11.070;2023-05-07T02:16:10;15.52;;;10.30;;
48522;SDS011;34315;50.150;11.070;2023-05-07T02:21:13;12.90;;;9.73;;
48522;SDS011;34315;50.150;11.070;2023-05-07T02:26:14;13.38;;;10.43;;
48522;SDS011;34315;50.150;11.070;2023-05-07T02:31:16;14.00;;;10.27;;
48522;SDS011;34315;50.150;11.070;2023-05-07T02:36:17;16.83;;;10.75;;
48522;SDS011;34315;50.150;11.070;2023-05-07T02:41:27;15.15;;;10.85;;
48522;SDS011;34315;50.150;11.070;2023-05-07T02:46:28;14.77;;;10.90;;
48522;SDS011;34315;50.150;11.070;2023-05-07T02:51:38;14.90;;;10.98;;
48522;SDS011;34315;50.150;11.070;2023-05-07T02:56:45;16.27;;;11.57;;
48522;SDS011;34315;50.150;11.070;2023-05-07T03:01:47;18.98;;;12.23;;
48522;SDS011;34315;50.150;11.070;2023-05-07T03:06:51;18.15;;;12.48;;
48522;SDS011;34315;50.150;11.070;2023-05-07T03:11:52;17.70;;;11.80;;
48522;SDS011;34315;50.150;11.070;2023-05-07T03:16:53;16.45;;;12.35;;
48522;SDS011;34315;50.150;11.070;2023-05-07T03:21:55;16.75;;;11.95;;
48522;SDS011;34315;50.150;11.070;2023-05-07T03:26:56;16.30;;;12.20;;
48522;SDS011;34315;50.150;11.070;2023-05-07T03:31:58;17.58;;;12.15;;
48522;SDS011;34315;50.150;11.070;2023-05-07T03:37:00;18.35;;;12.02;;
48522;SDS011;34315;50.150;11.070;2023-05-07T03:42:01;18.17;;;12.48;;
48522;SDS011;34315;50.150;11.070;2023-05-07T03:47:03;15.88;;;12.50;;
48522;SDS011;34315;50.150;11.070;2023-05-07T03:52:05;17.75;;;12.57;;
48522;SDS011;34315;50.150;11.070;2023-05-07T03:57:07;15.75;;;11.95;;
48522;SDS011;34315;50.150;11.070;2023-05-07T04:02:09;18.40;;;12.85;;
48522;SDS011;34315;50.150;11.070;2023-05-07T04:07:10;18.75;;;12.40;;
48522;SDS011;34315;50.150;11.070;2023-05-07T04:12:15;19.02;;;12.40;;
48522;SDS011;34315;50.150;11.070;2023-05-07T04:17:17;15.50;;;11.88;;
48522;SDS011;34315;50.150;11.070;2023-05-07T04:22:18;16.42;;;12.50;;
48522;SDS011;34315;50.150;11.070;2023-05-07T04:27:20;15.27;;;11.38;;
48522;SDS011;34315;50.150;11.070;2023-05-07T04:32:22;17.17;;;12.57;;
48522;SDS011;34315;50.150;11.070;2023-05-07T04:37:26;17.60;;;11.98;;
48522;SDS011;34315;50.150;11.070;2023-05-07T04:42:28;16.90;;;11.77;;
48522;SDS011;34315;50.150;11.070;2023-05-07T04:47:30;17.05;;;12.18;;
48522;SDS011;34315;50.150;11.070;2023-05-07T04:52:32;19.02;;;11.95;;
48522;SDS011;34315;50.150;11.070;2023-05-07T04:57:33;18.83;;;11.65;;
48522;SDS011;34315;50.150;11.070;2023-05-07T05:02:35;19.60;;;12.15;;
48522;SDS011;34315;50.150;11.070;2023-05-07T05:07:36;16.95;;;11.35;;
48522;SDS011;34315;50.150;11.070;2023-05-07T05:12:38;17.17;;;10.93;;
48522;SDS011;34315;50.150;11.070;2023-05-07T05:17:40;15.50;;;11.23;;
48522;SDS011;34315;50.150;11.070;2023-05-07T05:22:42;13.85;;;10.63;;
48522;SDS011;34315;50.150;11.070;2023-05-07T05:27:44;15.15;;;10.75;;
48522;SDS011;34315;50.150;11.070;2023-05-07T05:32:46;15.73;;;11.45;;
48522;SDS011;34315;50.150;11.070;2023-05-07T05:37:47;17.02;;;11.48;;
48522;SDS011;34315;50.150;11.070;2023-05-07T05:42:50;15.95;;;11.80;;
48522;SDS011;34315;50.150;11.070;2023-05-07T05:47:52;17.40;;;12.27;;
48522;SDS011;34315;50.150;11.070;2023-05-07T05:52:53;17.15;;;11.77;;
48522;SDS011;34315;50.150;11.070;2023-05-07T05:57:55;15.95;;;12.00;;
48522;SDS011;34315;50.150;11.070;2023-05-07T06:02:57;16.63;;;11.80;;
48522;SDS011;34315;50.150;11.070;2023-05-07T06:08:00;18.15;;;11.32;;
48522;SDS011;34315;50.150;11.070;2023-05-07T06:13:05;15.85;;;10.50;;
48522;SDS011;34315;50.150;11.070;2023-05-07T06:18:10;15.40;;;10.50;;
48522;SDS011;34315;50.150;11.070;2023-05-07T06:23:12;13.65;;;9.75;;
48522;SDS011;34315;50.150;11.070;2023-05-07T06:28:13;14.27;;;10.52;;
48522;SDS011;34315;50.150;11.070;2023-05-07T06:33:17;13.90;;;10.73;;
48522;SDS011;34315;50.150;11.070;2023-05-07T06:38:20;16.65;;;11.20;;
48522;SDS011;34315;50.150;11.070;2023-05-07T06:43:23;13.90;;;10.75;;
48522;SDS011;34315;50.150;11.070;2023-05-07T06:48:43;15.75;;;10.57;;
48522;SDS011;34315;50.150;11.070;2023-05-07T06:53:44;16.10;;;10.85;;
48522;SDS011;34315;50.150;11.070;2023-05-07T06:58:46;14.93;;;10.55;;
48522;SDS011;34315;50.150;11.070;2023-05-07T07:03:47;15.68;;;10.73;;
48522;SDS011;34315;50.150;11.070;2023-05-07T07:08:48;14.68;;;10.32;;
48522;SDS011;34315;50.150;11.070;2023-05-07T07:13:52;18.02;;;11.27;;
48522;SDS011;34315;50.150;11.070;2023-05-07T07:18:55;13.63;;;10.02;;
48522;SDS011;34315;50.150;11.070;2023-05-07T07:23:56;17.20;;;10.88;;
48522;SDS011;34315;50.150;11.070;2023-05-07T07:28:58;16.48;;;10.90;;
48522;SDS011;34315;50.150;11.070;2023-05-07T07:33:59;14.05;;;10.30;;
48522;SDS011;34315;50.150;11.070;2023-05-07T07:39:00;16.77;;;11.35;;
48522;SDS011;34315;50.150;11.070;2023-05-07T07:44:02;15.00;;;10.50;;
48522;SDS011;34315;50.150;11.070;2023-05-07T07:49:04;15.68;;;10.52;;
48522;SDS011;34315;50.150;11.070;2023-05-07T07:54:06;13.82;;;10.88;;
48522;SDS011;34315;50.150;11.070;2023-05-07T07:59:09;13.20;;;9.95;;
48522;SDS011;34315;50.150;11.070;2023-05-07T08:04:13;13.43;;;9.95;;
48522;SDS011;34315;50.150;11.070;2023-05-07T08:09:16;14.52;;;9.75;;
48522;SDS011;34315;50.150;11.070;2023-05-07T08:14:17;15.32;;;10.07;;
48522;SDS011;34315;50.150;11.070;2023-05-07T08:19:21;11.80;;;9.40;;
48522;SDS011;34315;50.150;11.070;2023-05-07T08:24:24;12.68;;;9.30;;
48522;SDS011;34315;50.150;11.070;2023-05-07T08:29:25;11.60;;;8.43;;
48522;SDS011;34315;50.150;11.070;2023-05-07T08:34:27;12.90;;;9.40;;
48522;SDS011;34315;50.150;11.070;2023-05-07T08:39:30;12.75;;;8.82;;
48522;SDS011;34315;50.150;11.070;2023-05-07T08:44:33;12.20;;;8.40;;
48522;SDS011;34315;50.150;11.070;2023-05-07T08:49:35;11.57;;;8.13;;
48522;SDS011;34315;50.150;11.070;2023-05-07T08:54:37;10.23;;;7.88;;
48522;SDS011;34315;50.150;11.070;2023-05-07T08:59:39;13.65;;;8.52;;
48522;SDS011;34315;50.150;11.070;2023-05-07T09:04:41;9.65;;;7.15;;
48522;SDS011;34315;50.150;11.070;2023-05-07T09:09:44;10.70;;;8.07;;
48522;SDS011;34315;50.150;11.070;2023-05-07T09:14:46;11.98;;;9.25;;
48522;SDS011;34315;50.150;11.070;2023-05-07T09:19:48;8.60;;;6.95;;
48522;SDS011;34315;50.150;11.070;2023-05-07T09:24:51;11.93;;;9.20;;
48522;SDS011;34315;50.150;11.070;2023-05-07T09:29:56;9.43;;;7.00;;
48522;SDS011;34315;50.150;11.070;2023-05-07T09:34:57;8.80;;;6.47;;
48522;SDS011;34315;50.150;11.070;2023-05-07T09:40:00;7.90;;;5.75;;
48522;SDS011;34315;50.150;11.070;2023-05-07T09:45:05;7.97;;;5.88;;
48522;SDS011;34315;50.150;11.070;2023-05-07T09:50:11;8.45;;;5.22;;
48522;SDS011;34315;50.150;11.070;2023-05-07T09:55:14;7.97;;;5.05;;
48522;SDS011;34315;50.150;11.070;2023-05-07T10:00:17;6.65;;;4.90;;
48522;SDS011;34315;50.150;11.070;2023-05-07T10:05:22;6.18;;;4.53;;
48522;SDS011;34315;50.150;11.070;2023-05-07T10:10:24;7.10;;;4.72;;
48522;SDS011;34315;50.150;11.070;2023-05-07T10:15:26;6.47;;;4.53;;
48522;SDS011;34315;50.150;11.070;2023-05-07T10:20:30;6.78;;;4.50;;
48522;SDS011;34315;50.150;11.070;2023-05-07T10:25:33;7.72;;;4.57;;
48522;SDS011;34315;50.150;11.070;2023-05-07T10:30:48;7.38;;;4.63;;
48522;SDS011;34315;50.150;11.070;2023-05-07T10:35:57;7.30;;;4.38;;
48522;SDS011;34315;50.150;11.070;2023-05-07T10:41:00;5.97;;;3.95;;
48522;SDS011;34315;50.150;11.070;2023-05-07T10:46:11;6.28;;;3.90;;
48522;SDS011;34315;50.150;11.070;2023-05-07T10:57:39;5.82;;;3.95;;
48522;SDS011;34315;50.150;11.070;2023-05-07T11:03:06;6.63;;;3.67;;
48522;SDS011;34315;50.150;11.070;2023-05-07T11:08:28;6.38;;;4.30;;
48522;SDS011;34315;50.150;11.070;2023-05-07T11:13:53;7.07;;;4.07;;
48522;SDS011;34315;50.150;11.070;2023-05-07T11:19:14;6.82;;;3.60;;
48522;SDS011;34315;50.150;11.070;2023-05-07T11:24:21;5.97;;;3.50;;
48522;SDS011;34315;50.150;11.070;2023-05-07T11:29:35;5.83;;;3.20;;
48522;SDS011;34315;50.150;11.070;2023-05-07T11:34:43;5.15;;;3.38;;
48522;SDS011;34315;50.150;11.070;2023-05-07T11:39:45;5.30;;;3.10;;
48522;SDS011;34315;50.150;11.070;2023-05-07T11:44:46;4.63;;;2.95;;
48522;SDS011;34315;50.150;11.070;2023-05-07T11:49:49;5.40;;;3.10;;
48522;SDS011;34315;50.150;11.070;2023-05-07T11:54:55;5.45;;;2.72;;
48522;SDS011;34315;50.150;11.070;2023-05-07T11:59:57;4.70;;;2.97;;
48522;SDS011;34315;50.150;11.070;2023-05-07T12:05:00;6.75;;;2.80;;
48522;SDS011;34315;50.150;11.070;2023-05-07T12:10:04;6.10;;;3.60;;
48522;SDS011;34315;50.150;11.070;2023-05-07T12:15:06;7.03;;;3.38;;
48522;SDS011;34315;50.150;11.070;2023-05-07T12:20:08;4.25;;;3.00;;
48522;SDS011;34315;50.150;11.070;2023-05-07T12:25:09;6.43;;;2.90;;
48522;SDS011;34315;50.150;11.070;2023-05-07T12:30:10;7.63;;;3.03;;
48522;SDS011;34315;50.150;11.070;2023-05-07T12:35:12;4.68;;;2.80;;
48522;SDS011;34315;50.150;11.070;2023-05-07T12:40:13;5.65;;;3.35;;
48522;SDS011;34315;50.150;11.070;2023-05-07T12:45:15;6.05;;;3.75;;
48522;SDS011;34315;50.150;11.070;2023-05-07T12:50:16;5.57;;;3.60;;
48522;SDS011;34315;50.150;11.070;2023-05-07T12:55:17;5.40;;;3.60;;
48522;SDS011;34315;50.150;11.070;2023-05-07T13:00:34;9.80;;;4.82;;
48522;SDS011;34315;50.150;11.070;2023-05-07T13:05:36;8.05;;;4.13;;
48522;SDS011;34315;50.150;11.070;2023-05-07T13:10:37;5.82;;;3.72;;
48522;SDS011;34315;50.150;11.070;2023-05-07T13:15:38;5.25;;;3.45;;
48522;SDS011;34315;50.150;11.070;2023-05-07T13:20:39;7.10;;;2.70;;
48522;SDS011;34315;50.150;11.070;2023-05-07T13:25:41;6.07;;;3.25;;
48522;SDS011;34315;50.150;11.070;2023-05-07T13:30:43;5.68;;;3.33;;
48522;SDS011;34315;50.150;11.070;2023-05-07T13:35:45;5.63;;;3.50;;
48522;SDS011;34315;50.150;11.070;2023-05-07T13:40:46;4.80;;;3.13;;
48522;SDS011;34315;50.150;11.070;2023-05-07T13:45:47;6.60;;;3.28;;
48522;SDS011;34315;50.150;11.070;2023-05-07T13:50:48;4.95;;;3.33;;
48522;SDS011;34315;50.150;11.070;2023-05-07T13:55:49;7.38;;;3.72;;
48522;SDS011;34315;50.150;11.070;2023-05-07T14:00:50;6.05;;;3.22;;
48522;SDS011;34315;50.150;11.070;2023-05-07T14:05:52;4.65;;;2.90;;
48522;SDS011;34315;50.150;11.070;2023-05-07T14:10:53;5.75;;;3.55;;
48522;SDS011;34315;50.150;11.070;2023-05-07T14:15:54;4.30;;;2.80;;
48522;SDS011;34315;50.150;11.070;2023-05-07T14:20:55;4.15;;;3.00;;
48522;SDS011;34315;50.150;11.070;2023-05-07T14:25:56;8.07;;;3.80;;
48522;SDS011;34315;50.150;11.070;2023-05-07T14:30:57;10.68;;;9.70;;
48522;SDS011;34315;50.150;11.070;2023-05-07T14:35:59;22.60;;;20.75;;
48522;SDS011;34315;50.150;11.070;2023-05-07T14:41:00;9.82;;;8.93;;
48522;SDS011;34315;50.150;11.070;2023-05-07T14:46:01;7.32;;;6.13;;
48522;SDS011;34315;50.150;11.070;2023-05-07T14:51:02;7.13;;;4.35;;
48522;SDS011;34315;50.150;11.070;2023-05-07T14:56:03;6.68;;;4.20;;
48522;SDS011;34315;50.150;11.070;2023-05-07T15:01:05;17.02;;;4.57;;
48522;SDS011;34315;50.150;11.070;2023-05-07T15:06:07;11.25;;;3.92;;
48522;SDS011;34315;50.150;11.070;2023-05-07T15:11:08;5.85;;;4.40;;
48522;SDS011;34315;50.150;11.070;2023-05-07T15:16:09;5.93;;;3.90;;
48522;SDS011;34315;50.150;11.070;2023-05-07T15:21:11;7.88;;;4.22;;
48522;SDS011;34315;50.150;11.070;2023-05-07T15:26:14;7.23;;;3.77;;
48522;SDS011;34315;50.150;11.070;2023-05-07T15:31:15;6.78;;;4.00;;
48522;SDS011;34315;50.150;11.070;2023-05-07T15:36:16;5.40;;;4.00;;
48522;SDS011;34315;50.150;11.070;2023-05-07T15:41:17;5.40;;;3.78;;
48522;SDS011;34315;50.150;11.070;2023-05-07T15:46:22;5.97;;;3.90;;
48522;SDS011;34315;50.150;11.070;2023-05-07T15:51:26;5.40;;;4.13;;
48522;SDS011;34315;50.150;11.070;2023-05-07T15:56:28;5.63;;;3.97;;
48522;SDS011;34315;50.150;11.070;2023-05-07T16:01:33;6.95;;;4.40;;
48522;SDS011;34315;50.150;11.070;2023-05-07T16:06:34;6.75;;;4.22;;
48522;SDS011;34315;50.150;11.070;2023-05-07T16:11:35;6.55;;;4.15;;
48522;SDS011;34315;50.150;11.070;2023-05-07T16:16:36;7.43;;;4.32;;
48522;SDS011;34315;50.150;11.070;2023-05-07T16:21:40;5.77;;;4.17;;
48522;SDS011;34315;50.150;11.070;2023-05-07T16:26:41;7.35;;;4.70;;
48522;SDS011;34315;50.150;11.070;2023-05-07T16:31:42;6.88;;;4.95;;
48522;SDS011;34315;50.150;11.070;2023-05-07T16:36:44;6.05;;;4.35;;
48522;SDS011;34315;50.150;11.070;2023-05-07T16:41:45;5.10;;;3.70;;
48522;SDS011;34315;50.150;11.070;2023-05-07T16:46:50;6.25;;;3.80;;
48522;SDS011;34315;50.150;11.070;2023-05-07T16:51:52;6.00;;;3.75;;
48522;SDS011;34315;50.150;11.070;2023-05-07T16:56:54;7.13;;;4.00;;
48522;SDS011;34315;50.150;11.070;2023-05-07T17:01:55;5.00;;;3.50;;
48522;SDS011;34315;50.150;11.070;2023-05-07T17:06:56;5.38;;;3.65;;
48522;SDS011;34315;50.150;11.070;2023-05-07T17:11:57;6.93;;;3.88;;
48522;SDS011;34315;50.150;11.070;2023-05-07T17:16:58;5.35;;;3.67;;
48522;SDS011;34315;50.150;11.070;2023-05-07T17:22:00;5.38;;;3.53;;
48522;SDS011;34315;50.150;11.070;2023-05-07T17:27:01;5.50;;;3.40;;
48522;SDS011;34315;50.150;11.070;2023-05-07T17:32:02;4.50;;;3.20;;
48522;SDS011;34315;50.150;11.070;2023-05-07T17:37:03;4.53;;;3.13;;
48522;SDS011;34315;50.150;11.070;2023-05-07T17:42:04;5.18;;;3.08;;
48522;SDS011;34315;50.150;11.070;2023-05-07T17:47:05;11.52;;;3.40;;
48522;SDS011;34315;50.150;11.070;2023-05-07T17:52:07;5.85;;;3.53;;
48522;SDS011;34315;50.150;11.070;2023-05-07T17:57:08;6.60;;;2.72;;
48522;SDS011;34315;50.150;11.070;2023-05-07T18:02:09;5.13;;;2.63;;
48522;SDS011;34315;50.150;11.070;2023-05-07T18:07:10;5.30;;;2.83;;
48522;SDS011;34315;50.150;11.070;2023-05-07T18:12:11;5.45;;;2.97;;
48522;SDS011;34315;50.150;11.070;2023-05-07T18:17:13;4.57;;;2.80;;
48522;SDS011;34315;50.150;11.070;2023-05-07T18:22:14;4.00;;;2.55;;
48522;SDS011;34315;50.150;11.070;2023-05-07T18:27:15;4.75;;;2.60;;
48522;SDS011;34315;50.150;11.070;2023-05-07T18:32:16;5.22;;;2.80;;
48522;SDS011;34315;50.150;11.070;2023-05-07T18:37:17;4.53;;;3.08;;
48522;SDS011;34315;50.150;11.070;2023-05-07T18:42:18;4.18;;;3.10;;
48522;SDS011;34315;50.150;11.070;2023-05-07T18:47:20;5.18;;;3.22;;
48522;SDS011;34315;50.150;11.070;2023-05-07T18:52:21;4.50;;;3.33;;
48522;SDS011;34315;50.150;11.070;2023-05-07T18:57:22;5.70;;;3.47;;
48522;SDS011;34315;50.150;11.070;2023-05-07T19:02:24;4.90;;;3.33;;
48522;SDS011;34315;50.150;11.070;2023-05-07T19:07:25;4.97;;;3.60;;
48522;SDS011;34315;50.150;11.070;2023-05-07T19:12:26;4.68;;;3.35;;
48522;SDS011;34315;50.150;11.070;2023-05-07T19:17:27;5.47;;;3.50;;
48522;SDS011;34315;50.150;11.070;2023-05-07T19:22:28;6.60;;;4.35;;
48522;SDS011;34315;50.150;11.070;2023-05-07T19:27:29;6.70;;;4.10;;
48522;SDS011;34315;50.150;11.070;2023-05-07T19:32:31;5.93;;;3.97;;
48522;SDS011;34315;50.150;11.070;2023-05-07T19:37:32;5.68;;;3.83;;
48522;SDS011;34315;50.150;11.070;2023-05-07T19:42:33;5.03;;;4.18;;
48522;SDS011;34315;50.150;11.070;2023-05-07T19:47:34;9.30;;;4.35;;
48522;SDS011;34315;50.150;11.070;2023-05-07T19:52:35;6.97;;;4.80;;
48522;SDS011;34315;50.150;11.070;2023-05-07T19:57:36;6.55;;;4.90;;
48522;SDS011;34315;50.150;11.070;2023-05-07T20:02:38;13.88;;;4.97;;
48522;SDS011;34315;50.150;11.070;2023-05-07T20:07:39;10.52;;;6.70;;
48522;SDS011;34315;50.150;11.070;2023-05-07T20:12:40;8.77;;;5.32;;
48522;SDS011;34315;50.150;11.070;2023-05-07T20:17:41;6.90;;;5.35;;
48522;SDS011;34315;50.150;11.070;2023-05-07T20:22:42;6.32;;;4.95;;
48522;SDS011;34315;50.150;11.070;2023-05-07T20:27:43;6.93;;;5.03;;
48522;SDS011;34315;50.150;11.070;2023-05-07T20:32:45;6.50;;;5.45;;
48522;SDS011;34315;50.150;11.070;2023-05-07T20:37:46;8.05;;;5.60;;
48522;SDS011;34315;50.150;11.070;2023-05-07T20:42:47;7.25;;;5.60;;
48522;SDS011;34315;50.150;11.070;2023-05-07T20:47:48;6.95;;;5.10;;
48522;SDS011;34315;50.150;11.070;2023-05-07T20:52:49;6.75;;;5.10;;
48522;SDS011;34315;50.150;11.070;2023-05-07T20:57:50;8.15;;;5.53;;
48522;SDS011;34315;50.150;11.070;2023-05-07T21:02:51;6.68;;;4.88;;
48522;SDS011;34315;50.150;11.070;2023-05-07T21:07:53;7.40;;;5.28;;
48522;SDS011;34315;50.150;11.070;2023-05-07T21:12:54;8.18;;;5.38;;
48522;SDS011;34315;50.150;11.070;2023-05-07T21:17:55;8.30;;;5.65;;
48522;SDS011;34315;50.150;11.070;2023-05-07T21:22:56;8.15;;;5.47;;
48522;SDS011;34315;50.150;11.070;2023-05-07T21:27:58;10.35;;;4.90;;
48522;SDS011;34315;50.150;11.070;2023-05-07T21:32:59;8.68;;;5.80;;
48522;SDS011;34315;50.150;11.070;2023-05-07T21:38:00;8.85;;;5.20;;
48522;SDS011;34315;50.150;11.070;2023-05-07T21:43:02;7.07;;;5.18;;
48522;SDS011;34315;50.150;11.070;2023-05-07T21:48:03;9.18;;;5.60;;
48522;SDS011;34315;50.150;11.070;2023-05-07T21:53:04;7.30;;;5.40;;
48522;SDS011;34315;50.150;11.070;2023-05-07T21:58:05;7.07;;;5.40;;
48522;SDS011;34315;50.150;11.070;2023-05-07T22:03:07;7.82;;;5.53;;
48522;SDS011;34315;50.150;11.070;2023-05-07T22:08:08;7.32;;;5.50;;
48522;SDS011;34315;50.150;11.070;2023-05-07T22:13:09;7.47;;;5.75;;
48522;SDS011;34315;50.150;11.070;2023-05-07T22:18:10;8.98;;;5.90;;
48522;SDS011;34315;50.150;11.070;2023-05-07T22:23:11;8.98;;;5.93;;
48522;SDS011;34315;50.150;11.070;2023-05-07T22:28:12;10.10;;;5.60;;
48522;SDS011;34315;50.150;11.070;2023-05-07T22:33:13;8.38;;;6.28;;
48522;SDS011;34315;50.150;11.070;2023-05-07T22:38:14;8.52;;;5.80;;
48522;SDS011;34315;50.150;11.070;2023-05-07T22:43:16;8.52;;;5.80;;
48522;SDS011;34315;50.150;11.070;2023-05-07T22:48:17;8.23;;;5.50;;
48522;SDS011;34315;50.150;11.070;2023-05-07T22:53:18;7.70;;;5.78;;
48522;SDS011;34315;50.150;11.070;2023-05-07T22:58:19;8.48;;;5.40;;
48522;SDS011;34315;50.150;11.070;2023-05-07T23:03:21;9.55;;;6.00;;
48522;SDS011;34315;50.150;11.070;2023-05-07T23:08:22;10.13;;;5.75;;
48522;SDS011;34315;50.150;11.070;2023-05-07T23:13:23;9.55;;;5.80;;
48522;SDS011;34315;50.150;11.070;2023-05-07T23:18:24;8.40;;;5.57;;
48522;SDS011;34315;50.150;11.070;2023-05-07T23:23:27;6.60;;;5.40;;
48522;SDS011;34315;50.150;11.070;2023-05-07T23:28:33;7.78;;;5.40;;
48522;SDS011;34315;50.150;11.070;2023-05-07T23:33:34;6.72;;;4.93;;
48522;SDS011;34315;50.150;11.070;2023-05-07T23:38:36;7.05;;;5.13;;
48522;SDS011;34315;50.150;11.070;2023-05-07T23:43:37;11.82;;;7.57;;
48522;SDS011;34315;50.150;11.070;2023-05-07T23:48:38;29.15;;;16.67;;
48522;SDS011;34315;50.150;11.070;2023-05-07T23:53:39;10.02;;;7.00;;
48522;SDS011;34315;50.150;11.070;2023-05-07T23:58:40;11.38;;;7.03;;
